PDT,Max TemperatureF,Mean TemperatureF,Min TemperatureF,Max Dew PointF,MeanDew PointF,Min DewpointF,Max Humidity, Mean Humidity, Min Humidity, Max Sea Level PressureIn, Mean Sea Level PressureIn, Min Sea Level PressureIn, Max VisibilityMiles, Mean VisibilityMiles, Min VisibilityMiles, Max Wind SpeedMPH, Mean Wind SpeedMPH, Max Gust SpeedMPH,PrecipitationIn, CloudCover, Events, WindDirDegrees
2013-7-1,92,74,56,54,47,35,72,44,15,30.34,30.07,29.98,10,10,10,31,3,41,0.01,1,Rain-Thunderstorm,103
2013-7-2,90,74,57,52,49,43,72,47,22,30.30,30.12,30.06,10,10,10,17,2,23,T,0,Rain-Thunderstorm,209
2013-7-3,87,69,51,55,50,46,83,55,27,30.22,30.09,29.99,10,10,10,10,2,14,0.00,0,Thunderstorm,101
2013-7-4,88,71,54,53,50,44,83,53,23,30.15,29.94,29.86,10,10,10,14,2,22,0.00,0,Thunderstorm,34
2013-7-5,86,68,50,50,35,20,83,47,10,29.86,29.81,29.77,10,10,10,25,5,38,0.00,0,,203
2013-7-6,83,63,43,40,33,28,62,39,15,29.87,29.84,29.82,10,10,10,18,3,26,0.00,0,,214
2013-7-7,84,66,47,41,35,28,65,40,14,29.94,29.90,29.87,10,10,10,21,2,33,0.00,0,,227
2013-7-8,84,65,46,38,31,20,65,38,10,30.11,30.03,29.94,10,10,10,20,3,28,0.00,0,,196
2013-7-9,82,64,46,37,31,26,56,36,15,30.18,30.15,30.11,10,10,10,15,3,25,0.00,0,,198
2013-7-10,83,62,41,46,34,25,70,42,13,30.16,30.09,29.99,10,10,10,23,4,32,0.00,0,,203
2013-7-11,79,64,49,43,35,31,59,38,17,30.00,29.97,29.94,10,10,10,20,3,31,0.00,0,,207
2013-7-12,80,60,40,38,32,23,70,42,14,30.03,29.99,29.97,10,10,10,17,4,25,0.00,0,,200
2013-7-13,80,58,36,38,31,23,70,43,15,30.09,30.05,30.03,10,10,10,15,3,21,0.00,0,,154
2013-7-14,84,63,42,44,37,23,76,44,11,30.13,30.06,30.01,10,10,10,21,3,29,0.00,0,,172
2013-7-15,82,64,46,43,39,35,71,46,21,30.01,29.94,29.87,10,10,10,16,3,29,0.00,1,,180
2013-7-16,78,62,46,42,35,29,71,44,16,30.07,29.95,29.88,10,10,10,20,4,28,0.00,1,,198
2013-7-17,82,59,36,42,34,27,76,45,14,30.17,30.13,30.09,10,10,10,13,2,22,0.00,0,,104
2013-7-18,89,66,43,45,40,28,82,47,12,30.17,30.10,30.05,10,10,10,13,3,17,0.00,0,,107
2013-7-19,92,69,46,46,41,36,76,46,15,30.09,30.02,29.96,10,10,10,14,3,31,0.00,0,,158
2013-7-20,94,71,48,49,41,30,71,41,11,30.00,29.94,29.89,10,10,10,12,3,31,0.00,0,,52
2013-7-21,94,74,53,49,44,33,72,42,12,29.96,29.91,29.87,10,10,10,14,2,21,0.00,0,,27
2013-7-22,88,70,51,54,45,39,77,48,18,30.30,30.05,29.95,10,10,2,21,4,32,0.11,2,Rain-Thunderstorm,177
2013-7-23,79,67,55,54,50,46,86,60,33,30.10,30.06,30.01,10,10,10,26,3,118,0.00,1,,180
2013-7-24,83,66,49,50,46,41,80,53,26,30.10,30.07,30.03,10,10,10,20,3,28,0.00,1,,180
2013-7-25,84,68,51,61,53,45,86,60,34,30.35,30.20,30.05,10,8,1,20,3,25,0.47,5,Rain-Thunderstorm,191
2013-7-26,84,68,51,53,50,44,89,59,28,30.23,30.18,30.11,10,10,10,15,3,28,0.01,1,,174
2013-7-27,85,67,48,48,43,36,80,49,18,30.15,30.05,29.97,10,10,10,12,4,18,0.00,0,,164
2013-7-28,83,64,45,45,41,34,76,48,19,29.98,29.93,29.90,10,10,10,18,5,28,0.00,0,,189
2013-7-29,82,63,43,42,35,27,77,47,17,30.07,29.99,29.94,10,10,10,22,4,31,0.00,0,,201
2013-7-30,83,64,45,42,36,30,71,44,17,30.17,30.12,30.08,10,10,9,17,4,28,0.00,0,,190
2013-7-31,78,63,48,43,37,33,68,45,21,30.14,30.08,30.05,10,10,10,18,4,26,0.00,1,,208